Time;durP1;ratioP1;P1;durP2;ratioP2;P2;SDS_P1;SDS_P2;PMS_P1;PMS_P2;Temp;Humidity;BMP_temperature;BMP_pressure;BME280_temperature;BME280_humidity;BME280_pressure;Samples;Min_cycle;Max_cycle;Signal;HPM_P1;HPM_P2
2021/12/19 00:04:31;;;;;;;;;;;;;;;9.82;48.59;100332.16;4472107;32;32873;-69
2021/12/19 00:09:44;;;;;;;;;;;;;;;9.88;49.10;100333.59;4468691;32;33387;-72
2021/12/19 00:12:12;;;;;;;;;;;;;;;10.02;48.76;100313.06;4474472;32;35104;-74
2021/12/19 00:14:39;;;;;;;;;;;;;;;9.51;50.62;100315.34;4469898;32;34298;-70
2021/12/19 00:17:06;;;;;;;;;;;;;;;8.97;51.40;100307.03;4470433;32;34312;-70
2021/12/19 00:19:34;;;;;;;;;;;;;;;9.40;49.85;100304.44;4469591;32;34077;-69
2021/12/19 00:22:01;;;;;;;;;;;;;;;9.05;51.92;100298.56;4467683;32;34196;-70
2021/12/19 00:24:29;;;;;;;;;;;;;;;9.60;50.60;100294.34;4474118;32;34008;-71
2021/12/19 00:26:56;;;;;;;;;;;;;;;9.46;50.62;100293.38;4481960;32;33979;-69
2021/12/19 00:29:24;;;;;;;;;;;;;;;9.93;49.45;100294.91;4477290;32;33417;-72
2021/12/19 00:31:51;;;;;;;;;;;;;;;9.29;51.52;100290.88;4471361;32;33822;-69
2021/12/19 00:34:19;;;;;;;;;;;;;;;9.72;51.07;100294.44;4472746;32;34426;-70
2021/12/19 00:36:46;;;;;;;;;;;;;;;10.11;48.76;100289.34;4473124;32;34891;-69
2021/12/19 00:39:13;;;;;;;;;;;;;;;10.59;47.89;100279.94;4475771;32;33336;-71
2021/12/19 00:41:41;;;;;;;;;;;;;;;10.39;48.76;100280.41;4472583;32;34080;-69
2021/12/19 00:44:13;;;;;;;;;;;;;;;10.19;48.89;100276.34;4474535;32;34467;-72
2021/12/19 00:46:49;;;;;;;;;;;;;;;10.28;48.37;100278.44;4470701;32;33169;-71
2021/12/19 00:49:22;;;;;;;;;;;;;;;10.29;48.99;100288.19;4469176;32;33283;-69
2021/12/19 00:51:50;;;;;;;;;;;;;;;9.86;50.44;100285.56;4469656;32;34096;-70
2021/12/19 00:54:17;;;;;;;;;;;;;;;10.01;49.58;100273.88;4475286;32;34436;-70
2021/12/19 00:56:45;;;;;;;;;;;;;;;10.20;49.18;100272.69;4473293;32;33541;-70
2021/12/19 00:59:13;;;;;;;;;;;;;;;10.16;49.73;100274.72;4467542;32;33375;-72
2021/12/19 01:01:43;;;;;;;;;;;;;;;10.44;48.17;100271.13;4476039;32;34240;-70
2021/12/19 01:04:11;;;;;;;;;;;;;;;10.59;48.83;100263.03;4473391;32;35222;-69
2021/12/19 01:06:40;;;;;;;;;;;;;;;9.83;51.38;100280.41;4468013;32;32740;-71
2021/12/19 01:09:07;;;;;;;;;;;;;;;9.39;52.97;100280.50;4468352;32;33478;-70
2021/12/19 01:11:35;;;;;;;;;;;;;;;10.05;50.49;100274.56;4469897;32;34023;-71
2021/12/19 01:14:03;;;;;;;;;;;;;;;9.70;51.22;100274.97;4472305;32;34362;-70
2021/12/19 01:16:31;;;;;;;;;;;;;;;10.35;49.09;100263.72;4467380;32;34256;-71
2021/12/19 01:18:58;;;;;;;;;;;;;;;9.91;50.47;100261.19;4469199;32;31549;-71
2021/12/19 01:21:25;;;;;;;;;;;;;;;10.22;49.74;100249.38;4474878;32;32860;-71
2021/12/19 01:23:53;;;;;;;;;;;;;;;9.84;51.00;100230.47;4474011;32;34011;-71
2021/12/19 01:26:20;;;;;;;;;;;;;;;10.27;49.93;100241.94;4471351;32;34213;-79
2021/12/19 01:28:48;;;;;;;;;;;;;;;10.59;49.14;100225.56;4453295;32;32196;-77
2021/12/19 01:31:15;;;;;;;;;;;;;;;9.74;51.13;100215.00;4472181;32;33874;-79
2021/12/19 01:33:43;;;;;;;;;;;;;;;10.13;50.17;100209.87;4465118;32;34363;-79
2021/12/19 01:36:11;;;;;;;;;;;;;;;9.51;52.72;100210.28;4470798;32;33435;-81
2021/12/19 01:38:39;;;;;;;;;;;;;;;9.91;51.54;100195.22;4464818;32;35440;-77
2021/12/19 01:41:07;;;;;;;;;;;;;;;9.56;52.17;100197.47;4469573;32;34321;-74
2021/12/19 01:43:34;;;;;;;;;;;;;;;9.80;52.52;100192.38;4471215;32;34045;-78
2021/12/19 01:46:02;;;;;;;;;;;;;;;9.45;53.32;100190.13;4468884;32;35016;-83
2021/12/19 01:48:29;;;;;;;;;;;;;;;10.10;51.46;100192.19;4467684;32;33543;-76
2021/12/19 01:50:57;;;;;;;;;;;;;;;8.94;54.04;100200.41;4470078;32;34199;-76
2021/12/19 01:53:24;;;;;;;;;;;;;;;9.01;54.81;100185.75;4476619;32;34353;-77
2021/12/19 01:55:51;;;;;;;;;;;;;;;9.53;52.83;100187.84;4469318;32;34229;-77
2021/12/19 01:58:19;;;;;;;;;;;;;;;8.59;56.48;100207.88;4473104;32;33292;-74
2021/12/19 02:00:52;;;;;;;;;;;;;;;8.45;56.96;100195.34;4471591;32;34815;-75
2021/12/19 02:03:19;;;;;;;;;;;;;;;8.81;56.07;100178.09;4471945;32;32668;-79
2021/12/19 02:05:47;;;;;;;;;;;;;;;8.77;56.02;100172.09;4469208;32;32861;-78
2021/12/19 02:08:16;;;;;;;;;;;;;;;9.00;55.69;100173.34;4469210;32;34368;-80
2021/12/19 02:10:43;;;;;;;;;;;;;;;8.24;57.42;100148.56;4468040;32;34163;-77
2021/12/19 02:13:12;;;;;;;;;;;;;;;8.78;56.00;100140.91;4467455;32;34346;-78
2021/12/19 02:15:39;;;;;;;;;;;;;;;8.89;55.84;100148.25;4470240;32;34040;-78
2021/12/19 02:18:10;;;;;;;;;;;;;;;8.84;56.48;100140.53;4466531;32;33476;-77
2021/12/19 02:20:42;;;;;;;;;;;;;;;8.31;58.18;100131.25;4466340;32;33088;-80
2021/12/19 02:23:10;;;;;;;;;;;;;;;8.57;57.44;100127.06;4466604;32;35470;-78
2021/12/19 02:25:38;;;;;;;;;;;;;;;8.59;57.37;100134.00;4479698;32;33079;-83
2021/12/19 02:28:05;;;;;;;;;;;;;;;8.46;57.34;100119.69;4444358;32;32433;-76
2021/12/19 02:30:33;;;;;;;;;;;;;;;8.82;57.73;100127.28;4468657;32;34120;-78
2021/12/19 02:33:00;;;;;;;;;;;;;;;8.35;58.14;100120.31;4470852;32;34415;-77
2021/12/19 02:35:32;;;;;;;;;;;;;;;9.33;55.44;100103.59;4478135;32;34204;-75
2021/12/19 02:48:53;;;;;;;;;;;;;;;9.28;55.83;100105.72;4467049;32;33215;-77
2021/12/19 02:51:20;;;;;;;;;;;;;;;8.63;57.02;100095.53;4470489;32;34261;-77
2021/12/19 02:53:47;;;;;;;;;;;;;;;8.82;56.55;100091.72;4472114;32;35207;-80
2021/12/19 02:56:15;;;;;;;;;;;;;;;8.49;57.71;100086.66;4465454;32;34544;-77
2021/12/19 02:58:43;;;;;;;;;;;;;;;9.09;56.07;100075.81;4469660;32;33372;-80
2021/12/19 03:01:12;;;;;;;;;;;;;;;9.16;55.99;100073.59;4470066;32;33517;-79
2021/12/19 03:03:40;;;;;;;;;;;;;;;9.69;53.86;100070.09;4470299;32;34441;-81
2021/12/19 03:06:07;;;;;;;;;;;;;;;9.61;53.86;100059.06;4465889;32;33811;-78
2021/12/19 03:08:36;;;;;;;;;;;;;;;8.46;57.49;100063.69;4473602;32;32879;-77
2021/12/19 03:19:04;;;;;;;;;;;;;;;8.39;57.38;100049.88;4474804;32;32482;-79
2021/12/19 03:21:31;;;;;;;;;;;;;;;8.37;57.20;100034.88;4470800;32;34000;-77
2021/12/19 03:23:58;;;;;;;;;;;;;;;8.64;57.05;100027.03;4469752;32;34412;-78
2021/12/19 03:26:26;;;;;;;;;;;;;;;8.17;57.51;100039.59;4470233;32;34247;-82
2021/12/19 03:28:54;;;;;;;;;;;;;;;8.20;58.18;100021.72;4454463;32;34311;-80
2021/12/19 03:31:21;;;;;;;;;;;;;;;8.08;57.84;100032.16;4479366;32;35110;-79
2021/12/19 03:33:49;;;;;;;;;;;;;;;8.52;57.12;100022.44;4468606;32;35395;-80
2021/12/19 03:36:16;;;;;;;;;;;;;;;8.67;55.99;100016.16;4466827;32;34281;-79
2021/12/19 03:38:44;;;;;;;;;;;;;;;8.49;56.52;100019.97;4456006;32;34019;-80
2021/12/19 03:41:18;;;;;;;;;;;;;;;8.79;56.74;100007.34;4476520;31;32620;-78
2021/12/19 03:43:46;;;;;;;;;;;;;;;9.29;54.53;99995.25;4469059;32;34074;-76
2021/12/19 03:46:13;;;;;;;;;;;;;;;8.96;55.19;99990.28;4466670;32;33048;-75
2021/12/19 03:48:41;;;;;;;;;;;;;;;8.32;57.29;99987.16;4470011;32;33642;-73
2021/12/19 03:51:08;;;;;;;;;;;;;;;8.31;57.35;99980.09;4470459;32;34731;-72
2021/12/19 03:53:36;;;;;;;;;;;;;;;8.78;55.74;99978.13;4471700;32;33590;-72
2021/12/19 03:56:03;;;;;;;;;;;;;;;8.38;56.94;99970.81;4468080;32;32657;-73
2021/12/19 03:58:31;;;;;;;;;;;;;;;8.43;56.51;99980.31;4471937;32;33473;-72
2021/12/19 04:01:00;;;;;;;;;;;;;;;7.73;58.82;99975.63;4478444;31;33792;-71
2021/12/19 04:03:29;;;;;;;;;;;;;;;8.95;55.12;99983.22;4465705;32;33806;-74
2021/12/19 04:05:57;;;;;;;;;;;;;;;9.12;54.98;99978.59;4473052;32;34900;-71
2021/12/19 04:08:24;;;;;;;;;;;;;;;8.79;56.67;99993.16;4472013;32;33460;-72
2021/12/19 04:10:52;;;;;;;;;;;;;;;8.66;56.38;99994.88;4472574;32;35193;-71
2021/12/19 04:13:19;;;;;;;;;;;;;;;8.39;56.72;99991.19;4477910;31;34228;-72
2021/12/19 04:15:48;;;;;;;;;;;;;;;8.54;55.82;99985.84;4477472;32;34215;-71
2021/12/19 04:18:16;;;;;;;;;;;;;;;7.74;58.02;99976.47;4470881;32;34404;-71
2021/12/19 04:20:43;;;;;;;;;;;;;;;7.50;59.34;99992.97;4473696;32;34087;-72
2021/12/19 04:23:10;;;;;;;;;;;;;;;7.07;60.44;99999.91;4473629;32;34491;-71
2021/12/19 04:25:38;;;;;;;;;;;;;;;7.69;58.35;99990.94;4472978;32;34289;-71
2021/12/19 04:28:05;;;;;;;;;;;;;;;7.56;59.52;100000.59;4467348;32;34220;-71
2021/12/19 04:30:32;;;;;;;;;;;;;;;7.72;57.93;99984.56;4472595;32;34215;-72
2021/12/19 04:33:07;;;;;;;;;;;;;;;7.59;59.43;99991.56;4471667;32;34337;-73
2021/12/19 04:35:35;;;;;;;;;;;;;;;7.98;58.23;99988.34;4474654;32;33916;-72
2021/12/19 04:41:35;;;;;;;;;;;;;;;7.79;58.08;99974.41;4472470;32;34956;-72
2021/12/19 04:54:32;;;;;;;;;;;;;;;8.37;56.08;99962.84;4468067;32;32564;-71
2021/12/19 04:57:19;;;;;;;;;;;;;;;8.44;55.96;99964.22;4466918;31;33801;-70
2021/12/19 04:59:53;;;;;;;;;;;;;;;8.63;55.01;99956.78;4466726;32;32087;-71
2021/12/19 05:05:33;;;;;;;;;;;;;;;7.88;57.65;99952.53;4468338;32;34491;-72
2021/12/19 05:16:20;;;;;;;;;;;;;;;8.30;55.92;99922.38;4473910;32;35162;-82
2021/12/19 05:18:49;;;;;;;;;;;;;;;8.06;56.75;99918.59;4467374;32;32941;-79
2021/12/19 05:21:21;;;;;;;;;;;;;;;8.10;57.07;99926.28;4466129;32;32643;-77
2021/12/19 05:26:25;;;;;;;;;;;;;;;9.20;54.01;99936.25;4474515;32;32844;-79
2021/12/19 05:28:53;;;;;;;;;;;;;;;10.00;51.31;99927.19;4467982;32;34135;-76
2021/12/19 05:31:20;;;;;;;;;;;;;;;9.60;52.92;99928.22;4469152;32;33448;-73
2021/12/19 05:33:47;;;;;;;;;;;;;;;9.60;53.56;99918.41;4471580;31;33980;-75
2021/12/19 05:47:06;;;;;;;;;;;;;;;9.08;53.83;99893.38;4473541;32;34139;-75
2021/12/19 05:49:34;;;;;;;;;;;;;;;9.03;54.69;99897.31;4467852;32;34782;-77
2021/12/19 05:52:02;;;;;;;;;;;;;;;8.53;55.64;99890.75;4473914;32;33523;-77
2021/12/19 05:54:30;;;;;;;;;;;;;;;9.00;55.67;99885.00;4467203;32;35057;-76
2021/12/19 05:56:57;;;;;;;;;;;;;;;8.90;54.83;99888.41;4470964;31;33207;-76
2021/12/19 05:59:24;;;;;;;;;;;;;;;8.76;56.31;99899.94;4474044;32;34158;-72
2021/12/19 06:01:52;;;;;;;;;;;;;;;9.69;53.29;99892.84;4467335;32;34000;-76
2021/12/19 06:04:19;;;;;;;;;;;;;;;9.03;55.47;99884.81;4474351;32;32488;-76
2021/12/19 06:06:47;;;;;;;;;;;;;;;9.68;53.00;99900.00;4464404;32;33839;-76
2021/12/19 06:09:14;;;;;;;;;;;;;;;10.03;51.70;99884.19;4469713;32;34109;-74
2021/12/19 06:11:42;;;;;;;;;;;;;;;9.62;53.05;99897.75;4466276;32;34398;-73
2021/12/19 06:14:09;;;;;;;;;;;;;;;9.71;52.63;99874.91;4471176;32;33093;-77
2021/12/19 06:16:36;;;;;;;;;;;;;;;10.17;51.78;99888.56;4474141;32;34104;-77
2021/12/19 06:19:04;;;;;;;;;;;;;;;10.04;51.44;99869.84;4467259;32;34144;-76
2021/12/19 06:21:31;;;;;;;;;;;;;;;9.53;54.54;99874.34;4472649;32;31978;-75
2021/12/19 06:23:58;;;;;;;;;;;;;;;9.44;54.91;99877.66;4476669;32;35591;-73
2021/12/19 06:26:27;;;;;;;;;;;;;;;10.16;51.84;99867.28;4468248;32;32029;-75
2021/12/19 06:28:54;;;;;;;;;;;;;;;9.87;53.10;99872.88;4467248;32;34046;-75
2021/12/19 06:31:21;;;;;;;;;;;;;;;9.79;53.14;99877.88;4463594;32;31978;-73
2021/12/19 06:33:49;;;;;;;;;;;;;;;9.50;53.14;99872.75;4471060;32;33763;-73
2021/12/19 06:36:16;;;;;;;;;;;;;;;10.00;52.39;99873.72;4470645;32;33408;-74
2021/12/19 06:38:43;;;;;;;;;;;;;;;10.20;51.71;99864.28;4470416;32;34215;-74
2021/12/19 06:41:11;;;;;;;;;;;;;;;10.48;51.16;99855.16;4471453;32;34436;-73
2021/12/19 06:43:38;;;;;;;;;;;;;;;10.63;50.30;99850.53;4469845;32;34024;-74
2021/12/19 06:46:06;;;;;;;;;;;;;;;10.40;50.66;99845.97;4466729;32;34363;-73
2021/12/19 06:48:33;;;;;;;;;;;;;;;10.76;49.55;99841.59;4475540;32;35068;-74
2021/12/19 06:51:00;;;;;;;;;;;;;;;10.71;49.96;99844.59;4474046;31;33355;-73
2021/12/19 06:53:29;;;;;;;;;;;;;;;11.39;49.11;99846.56;4466937;32;32873;-73
2021/12/19 06:55:58;;;;;;;;;;;;;;;11.64;47.15;99844.69;4466133;32;34283;-74
2021/12/19 06:58:25;;;;;;;;;;;;;;;11.70;47.44;99838.00;4467914;32;32607;-73
2021/12/19 07:00:53;;;;;;;;;;;;;;;12.20;45.98;99834.06;4467712;32;34251;-73
2021/12/19 07:03:23;;;;;;;;;;;;;;;11.25;49.25;99840.59;4474596;32;35083;-74
2021/12/19 07:05:51;;;;;;;;;;;;;;;11.82;46.18;99834.37;4473618;32;35027;-74
2021/12/19 07:08:18;;;;;;;;;;;;;;;12.19;45.66;99824.28;4472544;32;33358;-74
2021/12/19 07:10:46;;;;;;;;;;;;;;;12.24;44.98;99826.59;4476471;32;33631;-74
2021/12/19 07:13:18;;;;;;;;;;;;;;;12.37;44.90;99824.63;4466275;32;34183;-74
2021/12/19 07:15:50;;;;;;;;;;;;;;;11.77;46.24;99828.50;4465816;32;33088;-73
2021/12/19 07:18:17;;;;;;;;;;;;;;;12.27;45.09;99810.25;4466909;32;33846;-74
2021/12/19 07:20:45;;;;;;;;;;;;;;;11.40;47.10;99809.94;4470234;32;34335;-74
2021/12/19 07:23:13;;;;;;;;;;;;;;;12.37;44.47;99794.25;4469718;32;33900;-73
2021/12/19 07:25:40;;;;;;;;;;;;;;;12.07;45.30;99801.09;4473707;32;34373;-73
2021/12/19 07:28:07;;;;;;;;;;;;;;;11.08;47.64;99809.72;4466468;32;33119;-73
2021/12/19 07:30:36;;;;;;;;;;;;;;;11.68;46.44;99811.31;4468773;32;34643;-73
2021/12/19 07:33:04;;;;;;;;;;;;;;;12.16;46.17;99803.06;4469620;32;33846;-73
2021/12/19 07:35:35;;;;;;;;;;;;;;;11.65;46.50;99817.78;4469817;32;34435;-73
2021/12/19 07:38:03;;;;;;;;;;;;;;;11.65;46.53;99808.88;4476771;32;33954;-75
2021/12/19 07:40:36;;;;;;;;;;;;;;;11.35;48.25;99807.59;4472695;32;33425;-74
2021/12/19 07:43:04;;;;;;;;;;;;;;;11.19;47.99;99807.91;4472653;32;35185;-76
2021/12/19 07:45:31;;;;;;;;;;;;;;;10.87;48.42;99813.03;4476107;32;35370;-73
2021/12/19 07:47:59;;;;;;;;;;;;;;;11.32;47.31;99807.84;4472785;32;34138;-74
2021/12/19 07:50:27;;;;;;;;;;;;;;;10.92;49.54;99818.91;4473836;32;33616;-73
2021/12/19 07:52:54;;;;;;;;;;;;;;;11.70;46.43;99801.31;4474603;32;35024;-73
2021/12/19 07:55:22;;;;;;;;;;;;;;;12.11;45.61;99810.63;4473351;32;34404;-73
2021/12/19 07:57:49;;;;;;;;;;;;;;;11.48;46.92;99801.28;4477590;32;34178;-73
2021/12/19 08:00:19;;;;;;;;;;;;;;;11.54;47.01;99806.19;4477112;32;33183;-74
2021/12/19 08:02:47;;;;;;;;;;;;;;;12.31;45.25;99807.19;4468959;32;34242;-74
2021/12/19 08:05:16;;;;;;;;;;;;;;;12.59;44.92;99799.59;4474491;32;34897;-73
2021/12/19 08:07:46;;;;;;;;;;;;;;;12.76;44.06;99799.03;4476244;32;34037;-73
2021/12/19 08:11:39;;;;;;;;;;;;;;;13.00;43.30;99788.09;4470107;32;32036;-71
2021/12/19 08:13:03;;;;;;;;;;;;;;;12.94;43.82;99791.28;4475812;32;34235;-71
2021/12/19 08:15:31;;;;;;;;;;;;;;;12.55;44.33;99779.31;4468450;32;35509;-71
2021/12/19 08:17:58;;;;;;;;;;;;;;;12.10;46.15;99779.41;4469322;32;34398;-70
2021/12/19 08:20:27;;;;;;;;;;;;;;;10.24;49.94;99757.91;4468205;32;33405;-72
2021/12/19 08:22:55;;;;;;;;;;;;;;;11.55;47.76;99749.75;4468454;32;34037;-71
2021/12/19 08:25:23;;;;;;;;;;;;;;;10.85;50.01;99761.44;4477761;32;34323;-71
2021/12/19 08:27:50;;;;;;;;;;;;;;;10.83;49.87;99763.38;4476426;32;34142;-72
2021/12/19 08:30:20;;;;;;;;;;;;;;;11.04;49.29;99760.00;4473688;32;33074;-71
2021/12/19 08:32:47;;;;;;;;;;;;;;;10.39;51.49;99743.44;4471930;32;32989;-71
2021/12/19 08:35:15;;;;;;;;;;;;;;;10.74;50.93;99745.31;4466900;32;34293;-72
2021/12/19 08:37:42;;;;;;;;;;;;;;;9.92;52.89;99745.09;4466427;32;32914;-71
2021/12/19 08:40:11;;;;;;;;;;;;;;;10.69;51.87;99736.78;4467141;32;33071;-72
2021/12/19 08:42:39;;;;;;;;;;;;;;;10.56;51.85;99738.66;4473404;32;33843;-71
2021/12/19 08:45:07;;;;;;;;;;;;;;;10.48;51.45;99729.38;4474628;32;35185;-71
2021/12/19 08:47:34;;;;;;;;;;;;;;;9.93;53.26;99733.41;4472793;32;33772;-71
2021/12/19 08:50:03;;;;;;;;;;;;;;;9.75;54.58;99726.72;4469608;32;33281;-71
2021/12/19 08:52:30;;;;;;;;;;;;;;;9.71;53.97;99722.56;4480725;32;34206;-72
2021/12/19 08:54:58;;;;;;;;;;;;;;;9.65;53.93;99710.47;4480253;32;34444;-70
2021/12/19 08:57:25;;;;;;;;;;;;;;;9.47;54.28;99709.09;4475868;32;32760;-71
2021/12/19 08:59:53;;;;;;;;;;;;;;;9.45;54.56;99714.56;4475094;32;34273;-71
2021/12/19 09:02:21;;;;;;;;;;;;;;;9.51;54.68;99716.81;4471410;32;34208;-71
2021/12/19 09:04:48;;;;;;;;;;;;;;;9.61;54.21;99706.31;4473118;32;34025;-70
2021/12/19 09:07:17;;;;;;;;;;;;;;;9.18;55.13;99695.13;4475564;31;34133;-70
2021/12/19 09:09:48;;;;;;;;;;;;;;;9.86;53.74;99697.41;4472434;32;34412;-71
2021/12/19 09:12:16;;;;;;;;;;;;;;;9.84;53.87;99703.81;4479017;32;32215;-70
2021/12/19 09:14:43;;;;;;;;;;;;;;;10.41;52.15;99700.53;4479122;32;34005;-70
2021/12/19 09:17:11;;;;;;;;;;;;;;;10.37;52.56;99696.34;4477048;32;35183;-72
2021/12/19 09:19:38;;;;;;;;;;;;;;;10.55;52.15;99700.34;4472513;32;33493;-70
2021/12/19 09:22:06;;;;;;;;;;;;;;;11.21;49.90;99687.25;4475279;32;34176;-71
2021/12/19 09:24:34;;;;;;;;;;;;;;;11.27;49.62;99683.22;4477953;32;34443;-71
2021/12/19 09:27:03;;;;;;;;;;;;;;;12.24;46.64;99679.88;4474878;32;32989;-71
2021/12/19 09:29:30;;;;;;;;;;;;;;;12.37;45.46;99677.00;4466891;32;33056;-72
2021/12/19 09:31:59;;;;;;;;;;;;;;;13.05;44.18;99666.78;4444546;32;857612;-71
2021/12/19 09:34:27;;;;;;;;;;;;;;;14.08;41.65;99655.03;4474586;32;34492;-72
2021/12/19 09:36:55;;;;;;;;;;;;;;;13.65;43.15;99659.72;4475293;32;34100;-73
2021/12/19 09:39:23;;;;;;;;;;;;;;;12.97;44.45;99650.44;4477328;32;33256;-71
2021/12/19 09:41:52;;;;;;;;;;;;;;;12.90;44.57;99650.13;4476150;32;33813;-73
2021/12/19 09:44:19;;;;;;;;;;;;;;;12.94;44.38;99640.00;4471784;32;34390;-72
2021/12/19 09:46:47;;;;;;;;;;;;;;;14.01;42.05;99640.44;4472036;32;34274;-72
2021/12/19 09:49:16;;;;;;;;;;;;;;;14.66;41.15;99631.66;4475147;32;32899;-72
2021/12/19 09:51:44;;;;;;;;;;;;;;;14.84;39.99;99630.97;4478283;32;34919;-71
2021/12/19 09:54:11;;;;;;;;;;;;;;;15.76;38.08;99617.59;4475738;32;34361;-72
2021/12/19 09:56:39;;;;;;;;;;;;;;;15.00;39.17;99619.56;4470381;32;35415;-71
2021/12/19 09:59:13;;;;;;;;;;;;;;;13.96;41.46;99600.47;4474103;32;33703;-71
2021/12/19 10:01:41;;;;;;;;;;;;;;;13.28;42.88;99593.06;4481576;32;34176;-71
2021/12/19 10:04:28;;;;;;;;;;;;;;;12.81;44.09;99591.84;4473997;32;34241;-71
2021/12/19 10:07:31;;;;;;;;;;;;;;;12.44;44.77;99586.94;4476794;32;35126;-71
2021/12/19 10:10:12;;;;;;;;;;;;;;;12.92;44.37;99590.91;4422493;32;33251;-70
2021/12/19 10:15:13;;;;;;;;;;;;;;;11.10;49.14;99583.63;4476730;32;35072;-69
2021/12/19 10:17:40;;;;;;;;;;;;;;;11.27;48.11;99574.25;4473460;32;34266;-70
2021/12/19 10:20:12;;;;;;;;;;;;;;;11.48;47.54;99570.81;4477089;32;33347;-72
2021/12/19 10:22:47;;;;;;;;;;;;;;;11.35;47.64;99562.91;4479264;32;33615;-71
2021/12/19 10:25:20;;;;;;;;;;;;;;;10.69;49.30;99550.25;4473156;32;34163;-71
2021/12/19 10:27:53;;;;;;;;;;;;;;;10.70;49.53;99548.44;4479905;32;33820;-71
2021/12/19 10:30:27;;;;;;;;;;;;;;;10.22;50.56;99552.06;4477014;32;33416;-69
2021/12/19 10:32:59;;;;;;;;;;;;;;;9.93;52.08;99553.44;4477337;32;33980;-71
2021/12/19 10:35:30;;;;;;;;;;;;;;;10.93;49.15;99536.75;4468869;32;34397;-70
2021/12/19 10:37:58;;;;;;;;;;;;;;;11.08;49.06;99541.88;4478343;32;35182;-71
2021/12/19 10:40:25;;;;;;;;;;;;;;;10.01;51.39;99537.66;4476400;32;33432;-71
2021/12/19 10:42:55;;;;;;;;;;;;;;;10.53;50.51;99530.16;4476631;32;35345;-71
2021/12/19 10:45:32;;;;;;;;;;;;;;;10.63;50.07;99523.13;4473056;32;34425;-71
2021/12/19 10:48:26;;;;;;;;;;;;;;;10.37;50.74;99530.47;4479138;32;35274;-71
2021/12/19 10:50:53;;;;;;;;;;;;;;;10.60;49.60;99531.41;4471873;32;33549;-71
2021/12/19 10:53:40;;;;;;;;;;;;;;;10.57;49.56;99542.34;4477703;32;33944;-71
2021/12/19 10:56:09;;;;;;;;;;;;;;;10.89;48.88;99535.31;4471799;32;34390;-71
2021/12/19 10:58:38;;;;;;;;;;;;;;;10.25;49.87;99543.81;4477254;32;34091;-72
2021/12/19 11:01:14;;;;;;;;;;;;;;;10.52;49.66;99545.34;4469756;32;31936;-70
2021/12/19 11:04:00;;;;;;;;;;;;;;;10.08;50.56;99543.37;4482266;32;34302;-70
2021/12/19 11:06:37;;;;;;;;;;;;;;;10.39;50.28;99540.09;4482186;32;33148;-71
2021/12/19 11:09:15;;;;;;;;;;;;;;;10.36;50.03;99547.50;4476411;32;33913;-70
2021/12/19 11:11:48;;;;;;;;;;;;;;;9.60;52.24;99546.09;4479616;32;33673;-70
2021/12/19 11:14:17;;;;;;;;;;;;;;;9.78;51.89;99544.72;4474311;32;34174;-70
2021/12/19 11:16:45;;;;;;;;;;;;;;;9.97;51.11;99538.88;4476436;32;35198;-70
2021/12/19 11:19:13;;;;;;;;;;;;;;;10.26;51.18;99544.69;4473695;32;34360;-71
2021/12/19 11:21:41;;;;;;;;;;;;;;;10.13;50.87;99557.28;4475834;32;33297;-71
2021/12/19 11:24:10;;;;;;;;;;;;;;;10.30;49.92;99575.59;4477434;32;34067;-71
2021/12/19 11:26:38;;;;;;;;;;;;;;;10.59;49.40;99567.16;4468577;32;34334;-70
2021/12/19 11:29:06;;;;;;;;;;;;;;;10.92;48.05;99566.34;4466102;32;34243;-71
2021/12/19 11:31:33;;;;;;;;;;;;;;;11.08;48.10;99571.34;4468913;32;33380;-71
2021/12/19 11:34:05;;;;;;;;;;;;;;;11.71;45.81;99569.75;4468361;32;32941;-70
2021/12/19 11:36:38;;;;;;;;;;;;;;;11.82;46.90;99571.56;4474218;32;34190;-70
2021/12/19 11:39:06;;;;;;;;;;;;;;;11.21;47.02;99560.50;4470501;32;34552;-71
2021/12/19 11:41:35;;;;;;;;;;;;;;;10.82;47.60;99558.19;4476744;32;34143;-71
2021/12/19 11:44:06;;;;;;;;;;;;;;;11.30;46.87;99546.34;4471662;32;33695;-71
2021/12/19 11:46:44;;;;;;;;;;;;;;;11.61;46.96;99564.31;4475769;32;35322;-70
2021/12/19 11:49:15;;;;;;;;;;;;;;;11.03;48.45;99554.78;4475775;32;34387;-71
2021/12/19 11:51:42;;;;;;;;;;;;;;;11.42;46.67;99548.03;4470159;32;34391;-71
2021/12/19 11:54:15;;;;;;;;;;;;;;;11.83;45.63;99563.38;4468328;32;33952;-72
2021/12/19 11:57:10;;;;;;;;;;;;;;;10.52;48.30;99545.34;4472429;32;34347;-70
2021/12/19 11:59:38;;;;;;;;;;;;;;;11.76;45.71;99551.47;4472228;32;34157;-70
2021/12/19 12:02:22;;;;;;;;;;;;;;;11.51;45.84;99549.09;4468734;32;33447;-70
2021/12/19 12:05:30;;;;;;;;;;;;;;;11.09;46.82;99549.78;4470632;32;33954;-70
2021/12/19 12:08:10;;;;;;;;;;;;;;;11.83;45.87;99541.09;4431879;32;34165;-71
2021/12/19 12:11:01;;;;;;;;;;;;;;;11.30;46.25;99539.16;4430399;32;34047;-72
2021/12/19 12:13:33;;;;;;;;;;;;;;;11.57;46.01;99543.25;4458822;32;32563;-72
2021/12/19 12:16:18;;;;;;;;;;;;;;;11.24;46.57;99539.66;4466069;32;32806;-72
2021/12/19 12:18:45;;;;;;;;;;;;;;;10.80;47.67;99537.84;4467963;32;35308;-72
2021/12/19 12:22:02;;;;;;;;;;;;;;;11.32;46.92;99542.56;4464679;32;33408;-73
2021/12/19 12:24:13;;;;;;;;;;;;;;;11.12;47.45;99538.81;4466872;32;33130;-72
2021/12/19 12:26:48;;;;;;;;;;;;;;;10.66;49.46;99533.59;4465448;32;34297;-72
2021/12/19 12:29:16;;;;;;;;;;;;;;;10.99;47.11;99526.53;4477300;31;34108;-72
2021/12/19 12:31:44;;;;;;;;;;;;;;;11.28;46.97;99533.06;4466179;32;33964;-73
2021/12/19 12:34:13;;;;;;;;;;;;;;;11.64;45.96;99534.56;4463072;32;32060;-72
2021/12/19 12:36:41;;;;;;;;;;;;;;;11.49;46.78;99529.59;4461231;32;32981;-72
2021/12/19 12:39:25;;;;;;;;;;;;;;;11.87;45.80;99516.59;4468482;32;34179;-73
2021/12/19 12:42:01;;;;;;;;;;;;;;;11.59;45.32;99512.66;4468884;32;34238;-74
2021/12/19 12:44:28;;;;;;;;;;;;;;;11.63;45.63;99505.22;4472859;32;33507;-72
2021/12/19 12:46:56;;;;;;;;;;;;;;;11.36;46.43;99506.53;4466589;32;33937;-72
2021/12/19 12:49:24;;;;;;;;;;;;;;;11.13;48.18;99494.12;4471062;32;36293;-72
2021/12/19 12:51:58;;;;;;;;;;;;;;;11.02;48.50;99500.38;4469211;31;32839;-71
2021/12/19 12:54:34;;;;;;;;;;;;;;;11.77;46.41;99502.22;4466876;32;32865;-72
2021/12/19 12:57:03;;;;;;;;;;;;;;;11.65;46.39;99492.53;4470496;31;35042;-72
2021/12/19 12:59:36;;;;;;;;;;;;;;;11.03;47.31;99493.19;4473059;32;34359;-72
2021/12/19 13:02:25;;;;;;;;;;;;;;;10.65;47.98;99495.25;4469012;31;33344;-71
2021/12/19 13:04:53;;;;;;;;;;;;;;;11.34;46.29;99489.72;4475139;32;33385;-72
2021/12/19 13:07:22;;;;;;;;;;;;;;;11.31;46.72;99483.75;4475203;32;35090;-73
2021/12/19 13:09:49;;;;;;;;;;;;;;;11.77;45.58;99480.78;4470638;32;34200;-73
2021/12/19 13:12:16;;;;;;;;;;;;;;;11.68;45.25;99478.84;4465845;32;35224;-70
2021/12/19 13:14:47;;;;;;;;;;;;;;;11.08;47.33;99474.91;4459763;32;32086;-71
2021/12/19 13:17:15;;;;;;;;;;;;;;;12.03;44.54;99461.66;4470709;32;35538;-72
2021/12/19 13:19:46;;;;;;;;;;;;;;;12.10;45.40;99473.56;4467437;32;34567;-75
2021/12/19 13:22:21;;;;;;;;;;;;;;;11.76;45.13;99468.34;4466834;32;33186;-71
2021/12/19 13:24:49;;;;;;;;;;;;;;;12.76;42.93;99466.00;4464156;32;32389;-72
2021/12/19 13:27:18;;;;;;;;;;;;;;;12.18;44.25;99464.88;4469403;32;33806;-72
2021/12/19 13:30:16;;;;;;;;;;;;;;;12.20;44.38;99460.22;4469020;32;35660;-72
2021/12/19 13:32:45;;;;;;;;;;;;;;;12.34;43.24;99446.47;4458277;32;34206;-72
2021/12/19 13:35:16;;;;;;;;;;;;;;;11.82;45.14;99446.41;4472093;32;33080;-75
2021/12/19 13:37:59;;;;;;;;;;;;;;;12.24;44.24;99446.41;4468634;32;33477;-72
2021/12/19 13:40:28;;;;;;;;;;;;;;;11.24;46.54;99442.38;4466285;32;33638;-72
2021/12/19 13:42:57;;;;;;;;;;;;;;;11.67;46.17;99434.28;4467406;32;34747;-75
2021/12/19 13:45:26;;;;;;;;;;;;;;;11.85;44.98;99424.72;4465127;32;33452;-72
2021/12/19 13:47:54;;;;;;;;;;;;;;;11.85;45.56;99423.88;4468504;32;34186;-72
2021/12/19 13:50:22;;;;;;;;;;;;;;;12.08;45.45;99413.84;4468400;32;34090;-72
2021/12/19 13:52:50;;;;;;;;;;;;;;;12.02;45.34;99419.75;4466659;32;35811;-73
2021/12/19 13:55:19;;;;;;;;;;;;;;;11.97;46.43;99416.59;4467051;32;33464;-72
2021/12/19 13:57:47;;;;;;;;;;;;;;;12.35;44.02;99408.75;4469326;32;34058;-72
2021/12/19 14:00:31;;;;;;;;;;;;;;;11.89;44.83;99423.47;4466879;32;34185;-71
2021/12/19 14:02:59;;;;;;;;;;;;;;;11.55;45.91;99412.03;4466044;32;32828;-71
2021/12/19 14:05:35;;;;;;;;;;;;;;;11.34;46.30;99412.00;4469483;31;33499;-71
2021/12/19 14:08:23;;;;;;;;;;;;;;;11.81;46.06;99414.34;4470354;32;34189;-71